createdAt,value
2018-01-13T04:30:18.324Z,3.10
2018-01-13T04:32:45.971Z,3.10
2018-01-13T04:35:13.600Z,3.10
2018-01-13T04:37:41.267Z,3.10
2018-01-13T04:40:09.667Z,3.10
2018-01-13T04:42:37.315Z,3.10
2018-01-13T04:45:05.708Z,3.10
2018-01-13T04:47:33.404Z,3.10
2018-01-13T04:50:01.056Z,3.10
2018-01-13T04:52:28.735Z,3.00
2018-01-13T04:54:56.388Z,3.00
2018-01-13T04:57:24.041Z,3.10
2018-01-13T04:59:51.693Z,3.00
2018-01-13T05:02:19.365Z,3.00
2018-01-13T05:04:47.139Z,3.00
2018-01-13T05:07:14.895Z,3.00
2018-01-13T05:09:42.656Z,3.00
2018-01-13T05:12:10.308Z,3.10
2018-01-13T05:14:37.955Z,3.00
2018-01-13T05:17:05.607Z,3.00
2018-01-13T05:19:33.321Z,3.10
2018-01-13T05:22:00.952Z,3.10
2018-01-13T05:24:28.576Z,3.00
2018-01-13T05:26:56.992Z,3.00
2018-01-13T05:29:24.647Z,2.90
2018-01-13T05:31:52.319Z,3.00
2018-01-13T05:34:19.973Z,3.00
2018-01-13T05:36:47.628Z,3.00
2018-01-13T05:39:15.268Z,3.10
2018-01-13T05:41:42.921Z,3.00
2018-01-13T05:44:10.563Z,3.10
2018-01-13T05:46:38.980Z,3.10
2018-01-13T05:49:06.628Z,3.10
2018-01-13T05:51:34.283Z,3.10
2018-01-13T05:54:01.960Z,3.10
2018-01-13T05:56:29.592Z,3.10
2018-01-13T05:58:58.008Z,3.00
2018-01-13T06:01:25.679Z,3.00
2018-01-13T06:03:53.336Z,3.00
2018-01-13T06:06:20.985Z,3.00
2018-01-13T06:08:48.637Z,3.00
2018-01-13T06:11:16.316Z,3.00
2018-01-13T06:13:43.971Z,3.10
2018-01-13T06:16:11.613Z,3.10
2018-01-13T06:18:39.311Z,3.10
2018-01-13T06:21:06.936Z,3.10
2018-01-13T06:23:34.583Z,3.10
2018-01-13T06:26:02.240Z,3.00
2018-01-13T06:28:29.892Z,3.00
2018-01-13T06:30:58.288Z,3.10
2018-01-13T06:33:25.939Z,3.10
2018-01-13T06:35:53.632Z,3.00
2018-01-13T06:38:21.283Z,3.10
2018-01-13T06:40:48.936Z,3.20
2018-01-13T06:43:16.616Z,3.10
2018-01-13T06:45:44.271Z,3.10
2018-01-13T06:48:12.052Z,3.20
2018-01-13T06:50:39.711Z,3.10
2018-01-13T06:53:07.661Z,3.10
2018-01-13T06:55:35.763Z,3.10
2018-01-13T06:58:03.900Z,3.10
2018-01-13T07:00:31.623Z,3.20
2018-01-13T07:03:00.267Z,3.10
2018-01-13T07:05:28.161Z,3.10
2018-01-13T07:07:55.816Z,3.10
2018-01-13T07:10:23.668Z,3.10
2018-01-13T07:12:51.467Z,3.10
2018-01-13T07:15:19.887Z,3.10
2018-01-13T07:17:47.536Z,3.10
2018-01-13T07:20:15.240Z,3.20
2018-01-13T07:22:42.874Z,3.20
2018-01-13T07:25:11.353Z,3.10
2018-01-13T07:27:39.752Z,3.10
2018-01-13T07:30:07.389Z,3.10
2018-01-13T07:32:35.044Z,3.20
2018-01-13T07:35:02.738Z,3.10
2018-01-13T07:37:30.393Z,3.10
2018-01-13T07:39:58.020Z,3.20
2018-01-13T07:42:25.782Z,3.10
2018-01-13T07:44:53.435Z,3.20
2018-01-13T07:47:21.070Z,3.20
2018-01-13T07:49:49.527Z,3.20
2018-01-13T07:52:17.156Z,3.20
2018-01-13T07:54:45.569Z,3.20
2018-01-13T07:57:13.289Z,3.20
2018-01-13T07:59:40.943Z,3.30
2018-01-13T08:02:08.599Z,3.20
2018-01-13T08:04:36.268Z,3.30
2018-01-13T08:07:03.928Z,3.30
2018-01-13T08:09:31.564Z,3.20
2018-01-13T08:11:59.235Z,3.20
2018-01-13T08:14:26.892Z,3.20
2018-01-13T08:16:54.571Z,3.20
2018-01-13T08:19:22.232Z,3.20
2018-01-13T08:21:49.890Z,3.20
2018-01-13T08:24:17.549Z,3.20
2018-01-13T08:26:45.238Z,3.20
2018-01-13T08:29:12.903Z,3.20
2018-01-13T08:31:40.560Z,3.20
2018-01-13T08:34:08.215Z,3.30
2018-01-13T08:36:35.844Z,3.20
2018-01-13T08:39:03.516Z,3.20
2018-01-13T08:41:31.167Z,3.10
2018-01-13T08:43:58.819Z,3.20
2018-01-13T08:46:26.472Z,3.30
2018-01-13T08:48:54.151Z,3.20
2018-01-13T08:51:21.838Z,3.20
2018-01-13T08:53:49.488Z,3.20
2018-01-13T08:56:17.139Z,3.20
2018-01-13T09:01:22.246Z,3.20
2018-01-13T09:03:50.668Z,3.30
2018-01-13T09:06:18.308Z,3.30
2018-01-13T09:08:46.007Z,3.30
2018-01-13T09:11:13.643Z,3.30
2018-01-13T09:13:41.268Z,3.30
2018-01-13T09:16:09.684Z,3.30
2018-01-13T09:18:37.311Z,3.30
2018-01-13T09:21:05.727Z,3.20
2018-01-13T09:23:33.471Z,3.20
2018-01-13T09:26:01.119Z,3.20
2018-01-13T09:28:28.874Z,3.20
2018-01-13T09:30:57.268Z,3.30
2018-01-13T09:33:24.915Z,3.30
2018-01-13T09:35:52.572Z,3.30
2018-01-13T09:38:20.988Z,3.40
2018-01-13T09:40:48.617Z,3.40
2018-01-13T09:43:16.288Z,3.40
2018-01-13T09:45:43.943Z,3.50
2018-01-13T09:48:11.576Z,3.50
2018-01-13T09:50:39.274Z,3.50
2018-01-13T09:53:06.906Z,3.50
2018-01-13T09:55:35.319Z,3.40
2018-01-13T09:58:03.101Z,3.40
2018-01-13T10:00:30.965Z,3.30
2018-01-13T10:02:58.729Z,3.30
2018-01-13T10:05:26.492Z,3.30
2018-01-13T10:07:54.254Z,3.30
2018-01-13T10:10:22.017Z,3.20
2018-01-13T10:12:49.817Z,3.30
2018-01-13T10:15:17.645Z,3.30
2018-01-13T10:17:45.408Z,3.20
2018-01-13T10:20:13.274Z,3.30
2018-01-13T10:22:40.908Z,3.30
2018-01-13T10:25:08.543Z,3.30
2018-01-13T10:27:36.985Z,3.40
2018-01-13T10:30:04.615Z,3.40
2018-01-13T10:32:32.241Z,3.40
2018-01-13T10:35:00.815Z,3.50
2018-01-13T10:37:30.403Z,3.50
2018-01-13T10:39:58.127Z,3.50
2018-01-13T10:42:25.775Z,3.50
2018-01-13T10:44:53.448Z,3.50
2018-01-13T10:47:21.080Z,3.60
2018-01-13T10:49:49.494Z,3.50
2018-01-13T10:52:17.146Z,3.50
2018-01-13T10:54:44.860Z,3.60
2018-01-13T10:57:13.279Z,3.60
2018-01-13T10:59:40.911Z,3.60
2018-01-13T11:02:09.352Z,3.60
2018-01-13T11:04:37.004Z,3.60
2018-01-13T11:07:04.756Z,3.60
2018-01-13T11:09:32.396Z,3.60
2018-01-13T11:12:00.083Z,3.60
2018-01-13T11:14:27.740Z,3.60
2018-01-13T11:16:55.372Z,3.60
2018-01-13T11:19:23.020Z,3.70
2018-01-13T11:21:50.699Z,3.70
2018-01-13T11:24:18.400Z,3.70
2018-01-13T11:26:46.032Z,3.60
2018-01-13T11:29:13.837Z,3.70
2018-01-13T11:31:41.452Z,3.70
2018-01-13T11:34:09.076Z,3.80
2018-01-13T11:36:37.530Z,3.70
2018-01-13T11:39:05.217Z,3.70
2018-01-13T11:41:33.612Z,3.80
2018-01-13T11:44:01.341Z,3.80
2018-01-13T11:46:28.995Z,3.70
2018-01-13T11:48:56.653Z,3.70
2018-01-13T11:51:24.304Z,3.60
2018-01-13T11:53:51.940Z,3.60
2018-01-13T11:56:19.612Z,3.60
2018-01-13T11:58:47.330Z,3.60
2018-01-13T12:01:15.819Z,3.60
2018-01-13T12:03:43.819Z,3.60
2018-01-13T12:06:11.608Z,3.50
2018-01-13T12:08:39.347Z,3.50
2018-01-13T12:11:07.007Z,3.40
2018-01-13T12:13:34.680Z,3.50
2018-01-13T12:16:02.316Z,3.60
2018-01-13T12:18:29.968Z,3.60
2018-01-13T12:20:57.652Z,3.60
2018-01-13T12:23:25.320Z,3.60
2018-01-13T12:25:52.971Z,3.60
2018-01-13T12:28:20.630Z,3.60
2018-01-13T12:30:48.388Z,3.50
2018-01-13T12:33:16.064Z,3.50
2018-01-13T12:35:43.696Z,3.60
2018-01-13T12:38:11.372Z,3.60
2018-01-13T12:40:39.007Z,3.60
2018-01-13T12:43:06.633Z,3.70
2018-01-13T12:45:34.300Z,3.70
2018-01-13T12:48:02.723Z,3.50
2018-01-13T12:50:30.351Z,3.50
2018-01-13T12:52:58.772Z,3.40
2018-01-13T12:55:26.423Z,3.40
2018-01-13T12:57:54.077Z,3.40
2018-01-13T13:00:21.700Z,3.40
2018-01-13T13:02:50.132Z,3.30
2018-01-13T13:05:17.784Z,3.30
2018-01-13T13:07:45.415Z,3.30
2018-01-13T13:10:13.110Z,3.30
2018-01-13T13:12:40.744Z,3.40
2018-01-13T13:15:08.376Z,3.40
2018-01-13T13:17:36.805Z,3.30
2018-01-13T13:20:04.470Z,3.30
2018-01-13T13:22:32.127Z,3.30
2018-01-13T13:24:59.804Z,3.30
2018-01-13T13:27:27.484Z,3.30
2018-01-13T13:29:55.112Z,3.20
2018-01-13T13:32:22.768Z,3.40
2018-01-13T13:34:50.440Z,3.40
2018-01-13T13:37:18.068Z,3.30
2018-01-13T13:39:45.704Z,3.40
2018-01-13T13:42:14.187Z,3.40
2018-01-13T13:44:42.604Z,3.40
2018-01-13T13:47:10.256Z,3.40
2018-01-13T13:49:37.936Z,3.40
2018-01-13T13:52:06.359Z,3.40
2018-01-13T13:54:34.893Z,3.40
2018-01-13T13:57:02.524Z,3.40
2018-01-13T13:59:30.261Z,3.30
2018-01-13T14:01:58.657Z,3.20
2018-01-13T14:04:26.315Z,3.20
2018-01-13T14:06:54.004Z,3.20
2018-01-13T14:09:21.663Z,3.20
2018-01-13T14:11:49.359Z,3.20
2018-01-13T14:14:17.066Z,3.00
2018-01-13T14:16:44.700Z,3.00
2018-01-13T14:19:13.097Z,2.90
2018-01-13T14:21:40.795Z,2.90
2018-01-13T14:24:09.207Z,2.90
2018-01-13T14:26:36.859Z,2.90
2018-01-13T14:29:04.528Z,2.80
2018-01-13T14:31:32.187Z,2.90
2018-01-13T14:34:00.652Z,2.90
2018-01-13T14:36:28.308Z,2.90
2018-01-13T14:38:55.948Z,3.00
2018-01-13T14:41:23.655Z,3.00
2018-01-13T14:43:52.055Z,3.00
2018-01-13T14:46:19.684Z,3.00
2018-01-13T14:48:47.359Z,3.00
2018-01-13T14:51:15.780Z,3.00
2018-01-13T14:53:43.408Z,2.90
2018-01-13T14:56:12.029Z,3.00
2018-01-13T14:58:39.657Z,2.90
2018-01-13T15:01:07.300Z,2.80
2018-01-13T15:03:35.744Z,2.80
2018-01-13T15:06:03.396Z,2.80
2018-01-13T15:08:31.051Z,2.80
2018-01-13T15:10:58.757Z,2.90
2018-01-13T15:13:27.155Z,2.80
2018-01-13T15:15:54.806Z,2.70
2018-01-13T15:18:22.467Z,2.70
2018-01-13T15:20:50.880Z,2.50
2018-01-13T15:23:18.571Z,2.50
2018-01-13T15:25:46.208Z,2.40
2018-01-13T15:28:13.844Z,2.50
2018-01-13T15:30:41.494Z,2.50
2018-01-13T15:33:09.120Z,2.50
2018-01-13T15:35:36.828Z,2.40
2018-01-13T15:38:04.480Z,2.40
2018-01-13T15:40:32.132Z,2.30
2018-01-13T15:42:59.836Z,2.40
2018-01-13T15:45:27.496Z,2.30
2018-01-13T15:47:55.172Z,2.40
2018-01-13T15:50:22.832Z,2.50
2018-01-13T15:52:50.497Z,2.40
2018-01-13T15:55:18.159Z,2.50
2018-01-13T15:57:45.948Z,2.40
2018-01-13T16:00:14.366Z,2.30
2018-01-13T16:02:41.996Z,2.30
2018-01-13T16:05:10.624Z,2.20
2018-01-13T16:07:38.385Z,2.20
2018-01-13T16:10:06.068Z,2.20
2018-01-13T16:12:33.740Z,2.10
2018-01-13T16:15:01.380Z,2.10
2018-01-13T16:17:29.091Z,2.10
2018-01-13T16:19:56.749Z,2.10
2018-01-13T16:22:24.389Z,2.10
2018-01-13T16:24:52.848Z,2.20
2018-01-13T16:27:20.503Z,2.20
2018-01-13T16:29:48.159Z,2.10
2018-01-13T16:32:15.836Z,2.10
2018-01-13T16:34:43.476Z,2.00
2018-01-13T16:37:11.156Z,1.90
2018-01-13T16:39:38.815Z,1.80
2018-01-13T16:42:06.445Z,1.80
2018-01-13T16:44:34.120Z,1.80
2018-01-13T16:47:01.757Z,1.80
2018-01-13T16:49:29.409Z,1.90
2018-01-13T16:51:57.204Z,2.00
2018-01-13T16:54:24.852Z,2.00
2018-01-13T16:56:52.484Z,2.00
2018-01-13T16:59:20.180Z,1.90
2018-01-13T17:01:47.837Z,1.80
2018-01-13T17:04:16.248Z,1.80
2018-01-13T17:06:43.950Z,1.80
2018-01-13T17:09:11.583Z,1.80
2018-01-13T17:11:39.980Z,1.70
2018-01-13T17:14:07.657Z,1.70
2018-01-13T17:16:35.296Z,1.80
2018-01-13T17:19:03.692Z,2.00
2018-01-13T17:21:31.353Z,2.00
2018-01-13T17:23:59.032Z,2.00
2018-01-13T17:26:26.711Z,2.00
2018-01-13T17:28:54.349Z,2.00
2018-01-13T17:31:22.146Z,1.90
2018-01-13T17:33:49.799Z,1.90
2018-01-13T17:36:17.456Z,1.90
2018-01-13T17:38:45.132Z,1.90
2018-01-13T17:41:12.788Z,1.90
2018-01-13T17:43:40.420Z,1.90
2018-01-13T17:46:08.113Z,1.80
2018-01-13T17:48:35.767Z,1.80
2018-01-13T17:51:03.400Z,1.90
2018-01-13T17:53:31.100Z,1.90
2018-01-13T17:55:59.505Z,1.90
2018-01-13T17:58:27.141Z,1.90
2018-01-13T18:00:54.800Z,1.70
2018-01-13T18:03:22.432Z,1.60
2018-01-13T18:05:50.186Z,1.60
2018-01-13T18:08:17.860Z,1.60
2018-01-13T18:10:45.492Z,1.60
2018-01-13T18:13:13.124Z,1.40
2018-01-13T18:15:40.776Z,1.50
2018-01-13T18:18:09.171Z,1.60
2018-01-13T18:20:36.804Z,1.50
2018-01-13T18:23:05.302Z,1.30
2018-01-13T18:25:32.940Z,1.20
2018-01-13T18:28:00.612Z,1.20
2018-01-13T18:30:29.056Z,1.20
2018-01-13T18:32:56.684Z,1.20
2018-01-13T18:35:24.449Z,1.20
2018-01-13T18:37:52.096Z,1.20
2018-01-13T18:40:19.722Z,1.20
2018-01-13T18:42:47.426Z,1.30
2018-01-13T18:45:15.120Z,1.30
2018-01-13T18:47:42.753Z,1.30
2018-01-13T18:50:10.448Z,1.40
2018-01-13T18:52:38.085Z,1.40
2018-01-13T18:55:05.712Z,1.30
2018-01-13T18:57:33.396Z,1.40
2018-01-13T19:00:01.060Z,1.40
2018-01-13T19:02:28.707Z,1.40
2018-01-13T19:04:56.488Z,1.40
2018-01-13T19:07:24.116Z,1.40
2018-01-13T19:09:51.768Z,1.30
2018-01-13T19:12:20.255Z,1.30
2018-01-13T19:14:47.916Z,1.30
2018-01-13T19:17:15.574Z,1.20
2018-01-13T19:19:43.232Z,1.10
2018-01-13T19:22:11.652Z,1.10
2018-01-13T19:24:39.333Z,1.10
2018-01-13T19:27:07.147Z,1.10
2018-01-13T19:29:34.800Z,1.10
2018-01-13T19:32:02.504Z,1.10
2018-01-13T19:34:30.159Z,1.10
2018-01-13T19:36:57.800Z,1.00
2018-01-13T19:39:25.472Z,1.00
2018-01-13T19:41:53.104Z,1.10
2018-01-13T19:44:20.760Z,1.10
2018-01-13T19:46:48.464Z,1.10
2018-01-13T19:49:16.121Z,1.00
2018-01-13T19:51:43.775Z,1.10
2018-01-13T19:54:11.449Z,1.10
2018-01-13T19:59:14.571Z,1.20
2018-01-13T20:01:42.229Z,1.20
2018-01-13T20:04:09.884Z,1.30
2018-01-13T20:06:37.584Z,1.40
2018-01-13T20:09:06.016Z,1.40
2018-01-13T20:11:33.653Z,1.40
2018-01-13T20:14:01.320Z,1.40
2018-01-13T20:16:28.944Z,1.40
2018-01-13T20:18:57.360Z,1.40
2018-01-13T20:21:25.012Z,1.40
2018-01-13T20:23:52.636Z,1.50
2018-01-13T20:26:21.099Z,1.40
2018-01-13T20:28:48.727Z,1.40
2018-01-13T20:31:16.376Z,1.50
2018-01-13T20:33:44.109Z,1.50
2018-01-13T20:36:11.744Z,1.40
2018-01-13T20:38:39.379Z,1.30
2018-01-13T20:41:07.184Z,1.20
2018-01-13T20:43:35.576Z,1.20
2018-01-13T20:46:03.233Z,1.20
2018-01-13T20:48:32.712Z,1.20
2018-01-13T20:51:01.116Z,1.40
2018-01-13T20:53:28.743Z,1.30
2018-01-13T20:55:56.396Z,1.40
2018-01-13T20:58:24.026Z,1.30
2018-01-13T21:00:51.715Z,1.30
2018-01-13T21:03:19.376Z,1.20
2018-01-13T21:05:47.039Z,1.20
2018-01-13T21:08:14.879Z,1.10
2018-01-13T21:10:42.536Z,1.20
2018-01-13T21:13:10.192Z,1.30
2018-01-13T21:15:37.895Z,1.20
2018-01-13T21:18:05.572Z,1.20
2018-01-13T21:20:34.000Z,1.20
2018-01-13T21:23:02.464Z,1.30
2018-01-13T21:25:31.165Z,1.30
2018-01-13T21:27:58.930Z,1.30
2018-01-13T21:30:26.690Z,1.30
2018-01-13T21:32:54.316Z,1.20
2018-01-13T21:35:21.944Z,1.10
2018-01-13T21:37:49.725Z,1.20
2018-01-13T21:40:18.140Z,1.10
2018-01-13T21:42:45.792Z,1.10
2018-01-13T21:45:13.471Z,1.00
2018-01-13T21:47:41.097Z,0.70
2018-01-13T21:50:08.747Z,0.60
2018-01-13T21:52:37.195Z,0.30
2018-01-13T21:55:04.824Z,0.30
2018-01-13T21:57:32.447Z,0.20
2018-01-13T22:00:00.903Z,0.10
2018-01-13T22:02:28.559Z,0.10
2018-01-13T22:04:56.211Z,0.10
2018-01-13T22:07:23.883Z,0.10
2018-01-13T22:09:51.548Z,0.10
2018-01-13T22:12:19.188Z,0.10
2018-01-13T22:14:46.839Z,0.00
2018-01-13T22:17:14.492Z,-0.10
2018-01-13T22:19:42.191Z,-0.10
2018-01-13T22:22:10.602Z,0.10
2018-01-13T22:24:38.256Z,0.10
2018-01-13T22:27:05.931Z,0.20
2018-01-13T22:29:33.588Z,0.30
2018-01-13T22:32:01.244Z,0.40
2018-01-13T22:34:28.933Z,0.60
2018-01-13T22:36:56.699Z,0.50
2018-01-13T22:39:24.462Z,0.50
2018-01-13T22:41:52.329Z,0.50
2018-01-13T22:44:20.090Z,0.40
2018-01-13T22:46:47.852Z,0.40
2018-01-13T22:49:15.532Z,0.30
2018-01-13T22:51:43.276Z,0.30
2018-01-13T22:54:11.039Z,0.20
2018-01-13T22:56:38.905Z,0.10
2018-01-13T22:59:06.600Z,0.00
2018-01-13T23:01:34.328Z,-0.10
2018-01-13T23:04:02.112Z,-0.20
2018-01-13T23:06:29.771Z,-0.30
2018-01-13T23:08:58.968Z,-0.50
2018-01-13T23:11:26.627Z,-0.50
2018-01-13T23:13:54.473Z,-0.50
2018-01-13T23:16:22.236Z,-0.50
2018-01-13T23:18:50.019Z,-0.60
2018-01-13T23:21:17.763Z,-0.60
2018-01-13T23:23:45.423Z,-0.60
2018-01-13T23:26:13.289Z,-0.60
2018-01-13T23:28:41.051Z,-0.50
